createdAt,value
2023-02-03T00:00:10.446Z,61.66
2023-02-03T00:02:58.691Z,49.86
2023-02-03T00:05:27.749Z,44.05
2023-02-03T00:07:58.586Z,41.31
2023-02-03T00:10:27.070Z,35.56
2023-02-03T00:12:56.359Z,37.03
2023-02-03T00:15:24.336Z,40.32
2023-02-03T00:17:53.258Z,43.11
2023-02-03T00:20:21.028Z,45.18
2023-02-03T00:22:49.149Z,45.54
2023-02-03T00:25:18.485Z,45.27
2023-02-03T00:27:48.789Z,45.65
2023-02-03T00:30:20.027Z,47.56
2023-02-03T00:32:47.793Z,48.36
2023-02-03T00:35:15.723Z,49.45
2023-02-03T00:37:44.821Z,50.80
2023-02-03T00:40:13.669Z,51.25
2023-02-03T00:42:41.729Z,52.04
2023-02-03T00:45:10.513Z,52.80
2023-02-03T00:47:38.390Z,61.74
2023-02-03T00:50:08.298Z,73.31
2023-02-03T00:52:37.036Z,57.41
2023-02-03T00:55:06.334Z,49.26
2023-02-03T00:57:34.456Z,44.42
2023-02-03T01:00:02.873Z,40.73
2023-02-03T01:02:31.139Z,36.47
2023-02-03T01:04:59.595Z,38.99
2023-02-03T01:07:31.056Z,41.92
2023-02-03T01:09:59.019Z,42.87
2023-02-03T01:12:30.783Z,47.67
2023-02-03T01:15:01.494Z,48.23
2023-02-03T01:17:31.763Z,51.21
2023-02-03T01:20:02.053Z,50.93
2023-02-03T01:22:30.856Z,50.44
2023-02-03T01:24:59.722Z,51.28
2023-02-03T01:27:29.870Z,51.88
2023-02-03T01:30:00.178Z,52.96
2023-02-03T01:32:28.435Z,53.18
2023-02-03T01:34:56.215Z,54.38
2023-02-03T01:37:23.930Z,72.12
2023-02-03T01:39:51.724Z,71.19
2023-02-03T01:42:19.421Z,55.21
2023-02-03T01:44:55.241Z,49.24
2023-02-03T01:47:39.940Z,44.58
2023-02-03T01:50:25.213Z,37.95
2023-02-03T01:53:01.782Z,38.89
2023-02-03T01:55:42.911Z,40.87
2023-02-03T01:58:20.735Z,43.33
2023-02-03T02:00:49.992Z,47.38
2023-02-03T02:03:27.370Z,50.93
2023-02-03T02:06:09.463Z,54.19
2023-02-03T02:08:40.358Z,53.41
2023-02-03T02:11:10.322Z,52.62
2023-02-03T02:13:39.965Z,53.02
2023-02-03T02:16:07.862Z,54.08
2023-02-03T02:19:27.624Z,61.32
2023-02-03T02:22:10.649Z,76.27
2023-02-03T02:25:07.467Z,60.47
2023-02-03T02:28:32.330Z,46.63
2023-02-03T02:31:33.296Z,45.24
2023-02-03T02:34:43.052Z,49.29
2023-02-03T02:37:36.461Z,51.42
2023-02-03T02:40:26.708Z,49.94
2023-02-03T02:43:06.075Z,48.64
2023-02-03T02:46:14.962Z,52.12
2023-02-03T02:48:52.579Z,53.78
2023-02-03T02:51:23.857Z,54.31
2023-02-03T02:54:04.015Z,54.29
2023-02-03T02:56:37.055Z,55.31
2023-02-03T02:59:07.992Z,72.18
2023-02-03T03:01:36.176Z,73.63
2023-02-03T03:04:08.928Z,61.36
2023-02-03T03:06:44.066Z,51.09
2023-02-03T03:09:36.099Z,46.20
2023-02-03T03:12:14.414Z,39.07
2023-02-03T03:14:54.342Z,40.22
2023-02-03T03:17:39.969Z,42.59
2023-02-03T03:20:18.881Z,46.48
2023-02-03T03:22:56.264Z,50.13
2023-02-03T03:25:36.884Z,50.10
2023-02-03T03:28:17.159Z,51.32
2023-02-03T03:30:46.726Z,53.37
2023-02-03T03:33:14.612Z,55.11
2023-02-03T03:35:55.321Z,57.84
2023-02-03T03:38:39.002Z,68.21
2023-02-03T03:41:42.038Z,63.62
2023-02-03T03:44:16.823Z,55.29
2023-02-03T03:47:12.415Z,57.33
2023-02-03T03:49:46.952Z,62.34
2023-02-03T03:52:22.552Z,65.48
2023-02-03T03:54:53.935Z,61.90
2023-02-03T03:57:30.839Z,54.12
2023-02-03T04:00:02.587Z,54.01
2023-02-03T04:02:34.068Z,55.87
2023-02-03T04:05:04.806Z,59.77
2023-02-03T04:07:45.486Z,64.78
2023-02-03T04:10:35.215Z,61.05
2023-02-03T04:13:04.697Z,56.31
2023-02-03T04:15:34.230Z,61.32
2023-02-03T04:18:02.866Z,63.80
2023-02-03T04:20:32.573Z,60.76
2023-02-03T04:23:00.815Z,53.67
2023-02-03T04:25:28.737Z,54.81
2023-02-03T04:27:56.623Z,53.59
2023-02-03T04:30:24.656Z,54.53
2023-02-03T04:32:55.128Z,59.25
2023-02-03T04:35:23.082Z,67.42
2023-02-03T04:37:51.975Z,65.20
2023-02-03T04:40:19.815Z,57.59
2023-02-03T04:42:47.706Z,50.35
2023-02-03T04:45:16.127Z,55.45
2023-02-03T04:47:44.139Z,60.41
2023-02-03T04:50:13.291Z,61.92
2023-02-03T04:52:41.023Z,65.35
2023-02-03T04:55:10.164Z,66.57
2023-02-03T04:57:41.249Z,59.41
2023-02-03T05:00:10.758Z,49.84
2023-02-03T05:02:39.344Z,49.04
2023-02-03T05:05:07.876Z,50.59
2023-02-03T05:07:35.714Z,52.31
2023-02-03T05:10:04.267Z,55.60
2023-02-03T05:12:32.270Z,62.08
2023-02-03T05:14:59.985Z,72.10
2023-02-03T05:17:27.796Z,64.27
2023-02-03T05:19:55.940Z,54.49
2023-02-03T05:22:23.653Z,50.73
2023-02-03T05:24:54.176Z,52.85
2023-02-03T05:27:22.853Z,55.63
2023-02-03T05:29:51.924Z,58.56
2023-02-03T05:32:20.026Z,63.36
2023-02-03T05:34:47.748Z,70.99
2023-02-03T05:37:16.091Z,62.91
2023-02-03T05:39:44.158Z,50.92
2023-02-03T05:42:12.930Z,48.83
2023-02-03T05:44:41.617Z,52.20
2023-02-03T05:47:09.871Z,54.20
2023-02-03T05:49:37.905Z,57.03
2023-02-03T05:52:07.902Z,60.32
2023-02-03T05:54:36.275Z,62.38
2023-02-03T05:57:05.861Z,65.65
2023-02-03T05:59:34.194Z,58.61
2023-02-03T06:02:01.924Z,54.78
2023-02-03T06:04:30.285Z,56.65
2023-02-03T06:06:58.363Z,61.13
2023-02-03T06:09:26.679Z,65.22
2023-02-03T06:11:54.579Z,63.72
2023-02-03T06:14:22.446Z,57.60
2023-02-03T06:16:50.766Z,53.76
2023-02-03T06:19:18.533Z,55.62
2023-02-03T06:21:47.298Z,59.77
2023-02-03T06:24:15.462Z,66.66
2023-02-03T06:26:43.543Z,69.82
2023-02-03T06:29:11.431Z,61.85
2023-02-03T06:31:39.592Z,54.87
2023-02-03T06:34:11.218Z,58.79
2023-02-03T06:36:38.912Z,59.28
2023-02-03T06:39:06.881Z,57.50
2023-02-03T06:41:34.843Z,58.99
2023-02-03T06:44:02.620Z,66.18
2023-02-03T06:46:31.004Z,67.59
2023-02-03T06:48:59.100Z,58.73
2023-02-03T06:51:26.989Z,51.43
2023-02-03T06:53:55.032Z,54.11
2023-02-03T06:56:23.393Z,58.35
2023-02-03T06:58:52.270Z,60.66
2023-02-03T07:01:20.452Z,65.91
2023-02-03T07:03:49.580Z,68.49
2023-02-03T07:06:17.741Z,61.23
2023-02-03T07:08:45.539Z,51.48
2023-02-03T07:11:13.719Z,50.10
2023-02-03T07:13:41.464Z,52.73
2023-02-03T07:16:09.222Z,53.86
2023-02-03T07:18:47.268Z,59.41
2023-02-03T07:21:17.635Z,58.18
2023-02-03T07:23:50.185Z,65.59
2023-02-03T07:26:19.055Z,72.84
2023-02-03T07:28:47.910Z,65.38
2023-02-03T07:31:21.967Z,55.67
2023-02-03T07:33:50.056Z,48.80
2023-02-03T07:36:17.859Z,51.84
2023-02-03T07:38:45.552Z,55.09
2023-02-03T07:41:13.287Z,57.95
2023-02-03T07:43:41.241Z,57.98
2023-02-03T07:46:13.934Z,62.58
2023-02-03T07:48:41.787Z,74.01
2023-02-03T07:51:09.641Z,66.28
2023-02-03T07:53:37.520Z,54.86
2023-02-03T07:56:06.510Z,49.16
2023-02-03T07:58:35.505Z,50.28
2023-02-03T08:01:15.948Z,53.26
2023-02-03T08:03:45.010Z,54.38
2023-02-03T08:06:13.868Z,58.01
2023-02-03T08:08:42.178Z,65.65
2023-02-03T08:11:13.061Z,72.88
2023-02-03T08:13:40.893Z,61.35
2023-02-03T08:16:09.024Z,51.30
2023-02-03T08:18:39.532Z,49.56
2023-02-03T08:21:07.957Z,56.96
2023-02-03T08:23:35.771Z,59.47
2023-02-03T08:26:03.774Z,61.04
2023-02-03T08:28:31.519Z,65.79
2023-02-03T08:31:00.186Z,70.63
2023-02-03T08:33:28.890Z,63.73
2023-02-03T08:35:57.131Z,53.16
2023-02-03T08:38:25.090Z,48.52
2023-02-03T08:40:55.481Z,50.65
2023-02-03T08:43:23.347Z,53.38
2023-02-03T08:45:51.655Z,56.84
2023-02-03T08:48:19.555Z,63.51
2023-02-03T08:50:53.017Z,70.46
2023-02-03T08:53:20.826Z,59.87
2023-02-03T08:55:50.691Z,49.42
2023-02-03T08:58:18.649Z,51.70
2023-02-03T09:00:50.181Z,56.25
2023-02-03T09:03:18.478Z,61.81
2023-02-03T09:05:46.682Z,67.83
2023-02-03T09:08:16.779Z,61.83
2023-02-03T09:10:44.456Z,53.43
2023-02-03T09:13:12.302Z,52.76
2023-02-03T09:15:40.010Z,57.50
2023-02-03T09:18:11.111Z,59.43
2023-02-03T09:20:39.264Z,64.79
2023-02-03T09:23:07.295Z,63.29
2023-02-03T09:25:35.020Z,55.62
2023-02-03T09:28:03.470Z,52.97
2023-02-03T09:30:31.636Z,57.30
2023-02-03T09:33:00.200Z,63.56
2023-02-03T09:35:29.527Z,65.25
2023-02-03T09:37:59.462Z,58.33
2023-02-03T09:40:38.506Z,54.82
2023-02-03T09:43:35.307Z,55.85
2023-02-03T09:46:22.150Z,56.79
2023-02-03T09:49:06.561Z,64.84
2023-02-03T09:51:47.082Z,66.56
2023-02-03T09:55:09.747Z,58.45
2023-02-03T09:57:51.564Z,50.96
2023-02-03T10:00:30.535Z,55.37
2023-02-03T10:03:18.303Z,62.71
2023-02-03T10:06:12.436Z,63.26
2023-02-03T10:09:06.974Z,60.63
2023-02-03T10:11:52.893Z,48.11
2023-02-03T10:15:02.607Z,48.54
2023-02-03T10:17:36.333Z,51.68
2023-02-03T10:20:23.148Z,55.30
2023-02-03T10:23:04.787Z,59.89
2023-02-03T10:25:57.317Z,65.36
2023-02-03T10:28:33.128Z,59.86
2023-02-03T10:31:09.403Z,55.42
2023-02-03T10:33:37.842Z,55.05
2023-02-03T10:36:49.928Z,57.14
2023-02-03T10:39:31.770Z,55.90
2023-02-03T10:42:03.040Z,63.04
2023-02-03T10:44:42.983Z,67.15
2023-02-03T10:47:35.621Z,60.06
2023-02-03T10:50:10.886Z,56.63
2023-02-03T10:52:39.484Z,60.86
2023-02-03T10:55:31.057Z,63.92
2023-02-03T10:58:16.161Z,61.63
2023-02-03T11:00:43.902Z,54.89
2023-02-03T11:03:31.559Z,55.95
2023-02-03T11:06:17.841Z,60.05
2023-02-03T11:08:50.267Z,64.65
2023-02-03T11:11:35.983Z,62.43
2023-02-03T11:14:03.718Z,52.99
2023-02-03T11:16:35.155Z,49.37
2023-02-03T11:19:05.706Z,54.27
2023-02-03T11:21:39.794Z,56.40
2023-02-03T11:24:30.228Z,56.60
2023-02-03T11:27:09.827Z,59.53
2023-02-03T11:29:48.282Z,65.45
2023-02-03T11:32:41.927Z,69.05
2023-02-03T11:35:26.905Z,60.78
2023-02-03T11:37:59.844Z,48.66
2023-02-03T11:40:34.369Z,50.55
2023-02-03T11:43:17.928Z,52.32
2023-02-03T11:45:51.931Z,57.51
2023-02-03T11:49:15.391Z,60.32
2023-02-03T11:52:35.960Z,66.40
2023-02-03T11:55:46.513Z,59.54
2023-02-03T11:59:06.189Z,57.09
2023-02-03T12:02:41.331Z,61.21
2023-02-03T12:05:37.264Z,62.67
2023-02-03T12:08:20.262Z,56.26
2023-02-03T12:11:32.448Z,56.69
2023-02-03T12:14:27.842Z,60.70
2023-02-03T12:17:17.556Z,63.62
2023-02-03T12:19:52.685Z,61.02
2023-02-03T12:22:32.737Z,55.88
2023-02-03T12:25:44.863Z,58.32
2023-02-03T12:28:43.577Z,59.77
2023-02-03T12:31:33.330Z,63.72
2023-02-03T12:34:36.184Z,62.92
2023-02-03T12:37:33.473Z,55.11
2023-02-03T12:40:14.320Z,57.17
2023-02-03T12:42:59.024Z,60.06
2023-02-03T12:45:33.542Z,61.84
2023-02-03T12:48:10.294Z,67.05
2023-02-03T12:50:56.575Z,65.41
2023-02-03T12:53:35.094Z,60.51
2023-02-03T12:56:18.511Z,52.95
2023-02-03T12:59:00.603Z,53.26
2023-02-03T13:01:38.686Z,53.55
2023-02-03T13:04:30.744Z,58.17
2023-02-03T13:07:26.106Z,59.56
2023-02-03T13:10:23.090Z,60.17
2023-02-03T13:12:57.990Z,63.72
2023-02-03T13:15:34.681Z,72.97
2023-02-03T13:18:26.814Z,67.14
2023-02-03T13:20:58.017Z,61.69
2023-02-03T13:23:28.156Z,52.02
2023-02-03T13:26:25.442Z,49.08
2023-02-03T13:29:33.195Z,50.78
2023-02-03T13:32:47.805Z,53.57
2023-02-03T13:35:46.677Z,54.37
2023-02-03T13:38:14.734Z,56.61
2023-02-03T13:41:41.724Z,56.19
2023-02-03T13:44:22.797Z,57.92
2023-02-03T13:46:53.027Z,57.57
2023-02-03T13:50:10.170Z,58.52
2023-02-03T13:52:57.450Z,58.55
2023-02-03T13:55:52.295Z,59.51
2023-02-03T13:58:32.015Z,60.42
2023-02-03T14:01:30.658Z,61.42
2023-02-03T14:04:01.403Z,73.06
2023-02-03T14:07:03.730Z,72.99
2023-02-03T14:09:32.856Z,62.70
2023-02-03T14:12:36.209Z,52.43
2023-02-03T14:15:28.756Z,50.56
2023-02-03T14:18:26.136Z,52.42
2023-02-03T14:21:10.122Z,54.03
2023-02-03T14:23:45.868Z,55.13
2023-02-03T14:26:44.497Z,56.39
2023-02-03T14:29:30.355Z,56.43
2023-02-03T14:32:13.659Z,57.20
2023-02-03T14:34:48.309Z,58.35
2023-02-03T14:37:19.484Z,59.07
2023-02-03T14:40:26.637Z,60.51
2023-02-03T14:43:35.129Z,60.99
2023-02-03T14:46:33.956Z,74.71
2023-02-03T14:49:45.314Z,71.53
2023-02-03T14:52:53.635Z,56.71
2023-02-03T14:55:51.421Z,49.58
2023-02-03T14:58:34.403Z,50.94
2023-02-03T15:01:08.395Z,52.30
2023-02-03T15:03:42.463Z,54.32
2023-02-03T15:06:57.504Z,55.73
2023-02-03T15:09:47.500Z,55.58
2023-02-03T15:12:26.583Z,56.39
2023-02-03T15:15:31.671Z,57.83
2023-02-03T15:18:28.100Z,58.25
2023-02-03T15:20:57.229Z,59.40
2023-02-03T15:23:31.189Z,60.24
2023-02-03T15:26:13.002Z,61.55
2023-02-03T15:28:42.260Z,72.46
2023-02-03T15:31:35.543Z,73.34
2023-02-03T15:34:23.331Z,61.40
2023-02-03T15:36:56.450Z,49.80
2023-02-03T15:39:44.503Z,48.51
2023-02-03T15:42:36.588Z,50.61
2023-02-03T15:45:46.118Z,51.47
2023-02-03T15:48:43.724Z,53.60
2023-02-03T15:51:44.536Z,54.49
2023-02-03T15:54:30.346Z,56.03
2023-02-03T15:57:11.000Z,55.76
2023-02-03T16:00:01.234Z,57.17
2023-02-03T16:02:36.365Z,57.87
2023-02-03T16:05:33.301Z,59.22
2023-02-03T16:08:46.466Z,59.58
2023-02-03T16:11:46.459Z,61.09
2023-02-03T16:14:37.069Z,71.02
2023-02-03T16:17:24.399Z,75.45
2023-02-03T16:20:25.359Z,61.94
2023-02-03T16:23:19.828Z,49.40
2023-02-03T16:26:34.998Z,49.12
2023-02-03T16:29:32.439Z,54.07
2023-02-03T16:32:20.227Z,59.23
2023-02-03T16:35:06.987Z,60.70
2023-02-03T16:38:03.723Z,61.87
2023-02-03T16:40:51.255Z,70.43
2023-02-03T16:43:40.355Z,66.41
2023-02-03T16:46:31.401Z,54.97
2023-02-03T16:49:19.511Z,50.14
2023-02-03T16:51:55.044Z,53.32
2023-02-03T16:54:24.624Z,55.76
2023-02-03T16:56:53.289Z,56.13
2023-02-03T16:59:21.273Z,59.35
2023-02-03T17:01:51.809Z,64.86
2023-02-03T17:04:26.892Z,71.77
2023-02-03T17:06:55.068Z,64.18
2023-02-03T17:09:25.020Z,56.27
2023-02-03T17:11:53.187Z,50.74
2023-02-03T17:14:21.527Z,54.21
2023-02-03T17:16:49.396Z,56.57
2023-02-03T17:19:22.960Z,58.19
2023-02-03T17:21:51.794Z,59.63
2023-02-03T17:24:20.007Z,59.71
2023-02-03T17:26:48.272Z,59.90
2023-02-03T17:29:16.059Z,61.10
2023-02-03T17:31:44.906Z,69.32
2023-02-03T17:34:12.730Z,73.96
2023-02-03T17:36:40.603Z,67.60
2023-02-03T17:55:33.866Z,60.31
2023-02-03T17:58:02.450Z,64.80
2023-02-03T18:00:30.659Z,67.72
2023-02-03T18:02:58.890Z,67.41
2023-02-03T18:05:28.940Z,59.19
2023-02-03T18:08:09.185Z,51.17
2023-02-03T18:10:44.429Z,51.79
2023-02-03T18:13:12.614Z,53.69
2023-02-03T18:15:40.681Z,55.87
2023-02-03T18:18:09.296Z,56.56
2023-02-03T18:20:40.023Z,58.11
2023-02-03T18:23:09.328Z,57.82
2023-02-03T18:25:38.975Z,59.96
2023-02-03T18:28:06.766Z,59.44
2023-02-03T18:30:34.637Z,62.65
2023-02-03T18:33:04.098Z,72.79
2023-02-03T18:35:33.860Z,72.58
2023-02-03T18:38:01.928Z,63.76
2023-02-03T18:40:29.967Z,52.45
2023-02-03T18:42:59.284Z,49.56
2023-02-03T18:45:29.847Z,50.88
2023-02-03T18:47:57.622Z,53.07
2023-02-03T18:50:25.738Z,56.54
2023-02-03T18:52:55.558Z,59.33
2023-02-03T18:55:25.051Z,63.03
2023-02-03T18:57:53.194Z,71.20
2023-02-03T19:00:22.642Z,66.31
2023-02-03T19:02:50.817Z,56.74
2023-02-03T19:05:20.375Z,52.21
2023-02-03T19:07:48.186Z,51.18
2023-02-03T19:10:18.406Z,52.64
2023-02-03T19:12:47.716Z,55.29
2023-02-03T19:15:15.882Z,55.26
2023-02-03T19:17:44.473Z,56.35
2023-02-03T19:20:16.432Z,57.84
2023-02-03T19:22:44.800Z,58.15
2023-02-03T19:25:12.715Z,59.23
2023-02-03T19:27:40.712Z,59.28
2023-02-03T19:30:13.767Z,59.49
2023-02-03T19:32:41.758Z,60.39
2023-02-03T19:35:10.879Z,61.30
2023-02-03T19:37:40.405Z,69.02
2023-02-03T19:40:09.470Z,77.32
2023-02-03T19:42:39.725Z,62.78
2023-02-03T19:45:09.009Z,51.99
2023-02-03T19:47:37.273Z,49.55
2023-02-03T19:50:06.840Z,50.75
2023-02-03T19:52:34.926Z,51.77
2023-02-03T19:55:02.960Z,52.89
2023-02-03T19:57:31.538Z,54.07
2023-02-03T20:00:00.059Z,54.96
2023-02-03T20:02:28.690Z,54.52
2023-02-03T20:04:57.656Z,56.04
2023-02-03T20:07:28.559Z,57.24
2023-02-03T20:09:56.981Z,57.91
2023-02-03T20:12:24.764Z,58.39
2023-02-03T20:14:52.530Z,59.11
2023-02-03T20:17:20.454Z,59.58
2023-02-03T20:19:48.199Z,60.26
2023-02-03T20:22:16.055Z,60.76
2023-02-03T20:24:43.777Z,61.01
2023-02-03T20:27:12.134Z,61.76
2023-02-03T20:29:39.901Z,69.33
2023-02-03T20:32:09.503Z,78.36
2023-02-03T20:34:38.028Z,66.31
2023-02-03T20:37:07.085Z,56.83
2023-02-03T20:39:35.411Z,49.53
2023-02-03T20:42:16.686Z,50.31
2023-02-03T20:44:45.979Z,52.55
2023-02-03T20:47:22.340Z,54.00
2023-02-03T20:49:50.174Z,55.62
2023-02-03T20:52:21.143Z,56.46
2023-02-03T20:54:48.966Z,57.34
2023-02-03T20:57:20.655Z,57.25
2023-02-03T20:59:48.453Z,57.52
2023-02-03T21:02:23.235Z,58.42
2023-02-03T21:04:57.822Z,59.99
2023-02-03T21:07:33.163Z,60.86
2023-02-03T21:10:13.173Z,61.13
2023-02-03T21:12:41.288Z,61.80
2023-02-03T21:15:30.144Z,69.44
2023-02-03T21:17:58.088Z,77.47
2023-02-03T21:20:31.617Z,67.88
2023-02-03T21:22:59.703Z,58.50
2023-02-03T21:25:30.305Z,50.45
2023-02-03T21:28:02.174Z,50.72
2023-02-03T21:30:35.072Z,52.02
2023-02-03T21:33:29.330Z,54.07
2023-02-03T21:35:57.185Z,55.35
2023-02-03T21:38:33.467Z,56.90
2023-02-03T21:41:02.348Z,57.75
2023-02-03T21:43:36.607Z,57.75
2023-02-03T21:46:07.199Z,58.29
2023-02-03T21:48:40.417Z,60.28
2023-02-03T21:51:28.029Z,68.23
2023-02-03T21:54:02.433Z,76.90
2023-02-03T21:56:45.495Z,66.52
2023-02-03T21:59:33.931Z,55.70
2023-02-03T22:02:03.526Z,48.61
2023-02-03T22:04:32.055Z,49.90
2023-02-03T22:07:01.525Z,52.02
2023-02-03T22:09:29.486Z,54.05
2023-02-03T22:11:57.189Z,56.68
2023-02-03T22:14:25.076Z,61.48
2023-02-03T22:16:52.843Z,61.35
2023-02-03T22:19:21.057Z,67.92
2023-02-03T22:21:50.797Z,72.29
2023-02-03T22:24:18.645Z,62.18
2023-02-03T22:26:46.604Z,53.21
2023-02-03T22:29:14.512Z,49.55
2023-02-03T22:31:42.934Z,50.72
2023-02-03T22:34:11.003Z,52.96
2023-02-03T22:36:39.610Z,56.50
2023-02-03T22:39:08.197Z,57.38
2023-02-03T22:41:37.139Z,58.72
2023-02-03T22:44:05.475Z,59.79
2023-02-03T22:46:33.150Z,59.50
2023-02-03T22:49:00.829Z,59.85
2023-02-03T22:51:28.612Z,60.35
2023-02-03T22:53:56.621Z,61.24
2023-02-03T22:56:24.465Z,61.71
2023-02-03T22:58:53.798Z,68.76
2023-02-03T23:01:25.701Z,78.05
2023-02-03T23:03:54.336Z,67.46
2023-02-03T23:06:22.164Z,58.38
2023-02-03T23:08:49.845Z,50.52
2023-02-03T23:11:18.024Z,50.78
2023-02-03T23:13:45.821Z,50.90
2023-02-03T23:16:15.201Z,54.08
2023-02-03T23:18:43.033Z,56.02
2023-02-03T23:21:12.612Z,56.66
2023-02-03T23:23:41.602Z,59.14
2023-02-03T23:26:09.795Z,60.55
2023-02-03T23:28:37.478Z,65.03
2023-02-03T23:31:05.479Z,72.55
2023-02-03T23:33:33.483Z,63.22
2023-02-03T23:36:01.329Z,52.34
2023-02-03T23:38:29.225Z,50.56
2023-02-03T23:40:57.696Z,51.33
2023-02-03T23:43:25.835Z,54.17
2023-02-03T23:45:53.498Z,57.21
2023-02-03T23:48:21.320Z,59.12
2023-02-03T23:50:49.238Z,68.22
2023-02-03T23:53:16.988Z,70.22
2023-02-03T23:55:45.156Z,55.72
2023-02-03T23:58:13.410Z,48.26
